createdAt,value
2017-11-05T00:00:15.406Z,13.60
2017-11-05T00:02:43.065Z,13.60
2017-11-05T00:05:10.654Z,13.60
2017-11-05T00:07:39.050Z,13.50
2017-11-05T00:10:06.666Z,13.50
2017-11-05T00:12:34.281Z,13.50
2017-11-05T00:15:01.891Z,13.50
2017-11-05T00:17:29.689Z,13.40
2017-11-05T00:19:58.053Z,13.50
2017-11-05T00:22:25.651Z,13.50
2017-11-05T00:24:53.303Z,13.50
2017-11-05T00:27:20.933Z,13.60
2017-11-05T00:29:48.561Z,13.60
2017-11-05T00:32:16.947Z,13.50
2017-11-05T00:34:44.612Z,13.50
2017-11-05T00:37:12.254Z,13.50
2017-11-05T00:39:40.673Z,13.50
2017-11-05T00:42:08.310Z,13.50
2017-11-05T00:44:36.705Z,13.50
2017-11-05T00:47:04.564Z,13.50
2017-11-05T00:49:32.198Z,13.50
2017-11-05T00:51:59.799Z,13.50
2017-11-05T00:54:27.529Z,13.50
2017-11-05T00:56:55.878Z,13.60
2017-11-05T00:59:23.483Z,13.60
2017-11-05T01:01:51.168Z,13.60
2017-11-05T01:04:18.735Z,13.60
2017-11-05T01:06:46.311Z,13.50
2017-11-05T01:09:13.957Z,13.50
2017-11-05T01:11:41.562Z,13.40
2017-11-05T01:14:09.212Z,13.50
2017-11-05T01:16:37.563Z,13.40
2017-11-05T01:19:05.149Z,13.40
2017-11-05T01:21:33.363Z,13.40
2017-11-05T01:24:00.990Z,13.40
2017-11-05T01:26:29.354Z,13.40
2017-11-05T01:28:56.934Z,13.40
2017-11-05T01:31:25.335Z,13.40
2017-11-05T01:33:52.986Z,13.40
2017-11-05T01:36:20.624Z,13.50
2017-11-05T01:38:48.268Z,13.50
2017-11-05T01:41:15.887Z,13.50
2017-11-05T01:43:43.462Z,13.30
2017-11-05T01:46:11.086Z,13.30
2017-11-05T01:48:39.470Z,13.20
2017-11-05T01:51:07.071Z,13.20
2017-11-05T01:53:34.676Z,13.20
2017-11-05T01:56:02.281Z,13.20
2017-11-05T01:58:29.904Z,13.30
2017-11-05T02:00:58.279Z,13.30
2017-11-05T02:03:25.909Z,13.20
2017-11-05T02:05:54.181Z,13.20
2017-11-05T02:08:21.811Z,13.20
2017-11-05T02:10:49.448Z,13.10
2017-11-05T02:13:17.030Z,13.10
2017-11-05T02:15:44.700Z,13.10
2017-11-05T02:18:12.346Z,13.10
2017-11-05T02:20:39.944Z,13.00
2017-11-05T02:23:07.599Z,12.90
2017-11-05T02:25:35.258Z,12.90
2017-11-05T02:28:02.889Z,12.90
2017-11-05T02:30:30.554Z,12.80
2017-11-05T02:32:58.159Z,12.80
2017-11-05T02:35:25.781Z,12.90
2017-11-05T02:37:53.390Z,12.90
2017-11-05T02:40:21.045Z,12.80
2017-11-05T02:42:48.647Z,12.90
2017-11-05T02:45:16.374Z,12.90
2017-11-05T02:47:44.788Z,12.90
2017-11-05T02:50:12.418Z,12.90
2017-11-05T02:52:41.571Z,12.90
2017-11-05T02:55:09.183Z,12.90
2017-11-05T02:57:37.610Z,12.90
2017-11-05T03:00:05.209Z,12.90
2017-11-05T03:02:33.661Z,12.90
2017-11-05T03:05:01.324Z,12.90
2017-11-05T03:07:28.936Z,12.90
2017-11-05T03:09:56.501Z,12.90
2017-11-05T03:12:24.118Z,13.00
2017-11-05T03:14:51.739Z,12.90
2017-11-05T03:17:19.379Z,12.90
2017-11-05T03:19:47.774Z,12.80
2017-11-05T03:22:15.439Z,12.80
2017-11-05T03:24:43.071Z,12.80
2017-11-05T03:27:11.443Z,12.70
2017-11-05T03:29:40.137Z,12.70
2017-11-05T03:32:08.513Z,12.70
2017-11-05T03:34:36.940Z,12.70
2017-11-05T03:37:04.610Z,12.60
2017-11-05T03:39:32.266Z,12.60
2017-11-05T03:41:59.899Z,12.60
2017-11-05T03:44:27.516Z,12.60
2017-11-05T03:46:55.147Z,12.60
2017-11-05T03:49:22.818Z,12.50
2017-11-05T03:51:50.422Z,12.50
2017-11-05T03:54:18.068Z,12.60
2017-11-05T03:56:46.473Z,12.40
2017-11-05T03:59:14.057Z,12.40
2017-11-05T04:01:41.705Z,12.40
2017-11-05T04:04:09.318Z,12.40
2017-11-05T04:06:36.917Z,12.40
2017-11-05T04:09:04.522Z,12.30
2017-11-05T04:11:32.125Z,12.30
2017-11-05T04:14:00.532Z,12.40
2017-11-05T04:16:28.132Z,12.40
2017-11-05T04:18:55.765Z,12.50
2017-11-05T04:21:23.382Z,12.40
2017-11-05T04:23:51.862Z,12.50
2017-11-05T04:26:20.490Z,12.40
2017-11-05T04:28:48.519Z,12.50
2017-11-05T04:31:16.890Z,12.30
2017-11-05T04:33:45.246Z,12.30
2017-11-05T04:36:12.852Z,12.30
2017-11-05T04:38:40.486Z,12.30
2017-11-05T04:41:08.115Z,12.40
2017-11-05T04:43:35.974Z,12.40
2017-11-05T04:46:03.573Z,12.40
2017-11-05T04:48:31.212Z,12.50
2017-11-05T04:50:58.845Z,12.50
2017-11-05T04:53:27.270Z,12.40
2017-11-05T04:55:54.905Z,12.40
2017-11-05T04:58:22.523Z,12.30
2017-11-05T05:00:50.174Z,12.40
2017-11-05T05:03:17.803Z,12.30
2017-11-05T05:05:49.453Z,12.30
2017-11-05T05:08:17.099Z,12.30
2017-11-05T05:10:44.709Z,12.30
2017-11-05T05:13:12.300Z,12.30
2017-11-05T05:15:40.711Z,12.30
2017-11-05T05:18:08.328Z,12.30
2017-11-05T05:20:35.931Z,12.20
2017-11-05T05:23:03.575Z,12.30
2017-11-05T05:25:32.025Z,12.20
2017-11-05T05:27:59.672Z,12.20
2017-11-05T05:30:27.302Z,12.30
2017-11-05T05:32:54.894Z,12.20
2017-11-05T05:35:22.505Z,12.20
2017-11-05T05:37:50.144Z,12.20
2017-11-05T05:40:17.722Z,12.10
2017-11-05T05:42:45.391Z,12.10
2017-11-05T05:45:12.967Z,12.00
2017-11-05T05:47:40.602Z,11.90
2017-11-05T05:50:08.191Z,11.80
2017-11-05T05:52:35.856Z,11.80
2017-11-05T05:55:04.312Z,11.80
2017-11-05T05:57:31.917Z,11.80
2017-11-05T06:00:00.351Z,11.80
2017-11-05T06:02:28.728Z,11.80
2017-11-05T06:04:56.320Z,11.80
2017-11-05T06:07:24.703Z,11.80
2017-11-05T06:09:53.069Z,11.60
2017-11-05T06:12:20.689Z,11.60
2017-11-05T06:14:48.372Z,11.50
2017-11-05T06:17:16.047Z,11.40
2017-11-05T06:19:43.678Z,11.40
2017-11-05T06:22:11.345Z,11.40
2017-11-05T06:24:38.952Z,11.30
2017-11-05T06:27:06.576Z,11.40
2017-11-05T06:29:34.221Z,11.30
2017-11-05T06:32:01.875Z,11.20
2017-11-05T06:34:29.508Z,11.30
2017-11-05T06:36:57.473Z,11.30
2017-11-05T06:39:25.117Z,11.30
2017-11-05T06:41:52.857Z,11.30
2017-11-05T06:44:20.540Z,11.30
2017-11-05T06:46:48.204Z,11.30
2017-11-05T06:49:16.628Z,11.30
2017-11-05T06:51:44.256Z,11.30
2017-11-05T06:54:11.881Z,11.30
2017-11-05T06:56:39.514Z,11.30
2017-11-05T06:59:07.143Z,11.30
2017-11-05T07:01:34.799Z,11.30
2017-11-05T07:04:02.592Z,11.10
2017-11-05T07:06:30.323Z,11.10
2017-11-05T07:08:58.708Z,11.20
2017-11-05T07:11:26.346Z,11.20
2017-11-05T07:13:54.736Z,11.20
2017-11-05T07:16:22.449Z,11.20
2017-11-05T07:18:50.024Z,11.10
2017-11-05T07:21:17.721Z,11.10
2017-11-05T07:23:46.092Z,11.10
2017-11-05T07:26:13.730Z,11.10
2017-11-05T07:28:41.360Z,11.20
2017-11-05T07:31:08.968Z,11.20
2017-11-05T07:33:36.613Z,11.10
2017-11-05T07:36:04.223Z,11.10
2017-11-05T07:38:31.833Z,11.10
2017-11-05T07:41:00.136Z,11.00
2017-11-05T07:43:27.783Z,11.00
2017-11-05T07:45:55.501Z,11.00
2017-11-05T07:48:23.119Z,10.90
2017-11-05T07:50:50.749Z,10.90
2017-11-05T07:53:18.490Z,10.90
2017-11-05T07:55:46.149Z,10.80
2017-11-05T07:58:14.660Z,10.60
2017-11-05T08:00:42.358Z,10.40
2017-11-05T08:03:09.980Z,10.30
2017-11-05T08:05:37.660Z,10.30
2017-11-05T08:08:05.272Z,10.20
2017-11-05T08:10:32.896Z,10.20
2017-11-05T08:13:00.552Z,10.10
2017-11-05T08:15:28.618Z,10.00
2017-11-05T08:17:56.280Z,10.00
2017-11-05T08:20:23.924Z,10.10
2017-11-05T08:22:51.550Z,10.00
2017-11-05T08:25:19.197Z,10.10
2017-11-05T08:27:47.564Z,10.10
2017-11-05T08:30:15.208Z,10.10
2017-11-05T08:32:42.807Z,10.10
2017-11-05T08:35:10.435Z,10.00
2017-11-05T08:37:38.089Z,10.10
2017-11-05T08:40:05.793Z,10.00
2017-11-05T08:42:33.492Z,9.90
2017-11-05T08:45:01.154Z,10.00
2017-11-05T08:47:28.899Z,10.00
2017-11-05T08:49:56.478Z,10.00
2017-11-05T08:52:24.081Z,10.10
2017-11-05T08:54:51.681Z,10.00
2017-11-05T08:57:20.083Z,10.00
2017-11-05T08:59:47.740Z,9.90
2017-11-05T09:02:15.433Z,9.90
2017-11-05T09:04:43.074Z,10.10
2017-11-05T09:07:10.784Z,10.10
2017-11-05T09:09:38.407Z,10.10
2017-11-05T09:12:06.041Z,10.20
2017-11-05T09:14:33.649Z,10.20
2017-11-05T09:17:01.267Z,10.20
2017-11-05T09:19:28.928Z,10.30
2017-11-05T09:21:56.561Z,10.30
2017-11-05T09:24:24.259Z,10.40
2017-11-05T09:26:51.882Z,10.40
2017-11-05T09:29:19.544Z,10.50
2017-11-05T09:31:47.258Z,10.60
2017-11-05T09:34:14.877Z,10.50
2017-11-05T09:36:42.510Z,10.50
2017-11-05T09:39:11.782Z,10.50
2017-11-05T09:41:39.465Z,10.50
2017-11-05T09:44:07.887Z,10.30
2017-11-05T09:46:35.556Z,10.30
2017-11-05T09:49:03.213Z,10.30
2017-11-05T09:51:30.818Z,10.30
2017-11-05T09:53:58.475Z,10.40
2017-11-05T09:56:26.165Z,10.30
2017-11-05T09:58:54.561Z,10.40
2017-11-05T10:01:22.211Z,10.40
2017-11-05T10:03:49.828Z,10.50
2017-11-05T10:06:17.507Z,10.50
2017-11-05T10:08:45.121Z,10.50
2017-11-05T10:11:12.714Z,10.60
2017-11-05T10:13:40.360Z,10.70
2017-11-05T10:16:08.013Z,10.80
2017-11-05T10:18:35.638Z,10.80
2017-11-05T10:21:03.262Z,10.70
2017-11-05T10:23:30.897Z,10.50
2017-11-05T10:25:58.594Z,10.30
2017-11-05T10:28:26.216Z,10.40
2017-11-05T10:30:53.872Z,10.40
2017-11-05T10:33:22.496Z,10.20
2017-11-05T10:35:50.122Z,10.30
2017-11-05T10:38:17.794Z,10.40
2017-11-05T10:40:45.411Z,10.50
2017-11-05T10:43:13.805Z,10.50
2017-11-05T10:45:42.195Z,10.30
2017-11-05T10:48:09.899Z,10.30
2017-11-05T10:50:37.518Z,10.50
2017-11-05T10:53:05.928Z,10.60
2017-11-05T10:55:34.293Z,10.50
2017-11-05T10:58:01.890Z,10.50
2017-11-05T11:00:29.514Z,10.70
2017-11-05T11:02:57.146Z,10.70
2017-11-05T11:05:24.771Z,10.70
2017-11-05T11:07:52.570Z,10.80
2017-11-05T11:10:20.192Z,10.90
2017-11-05T11:12:47.783Z,10.90
2017-11-05T11:15:15.431Z,11.00
2017-11-05T11:17:43.011Z,11.00
2017-11-05T11:20:11.119Z,10.80
2017-11-05T11:22:38.761Z,10.70
2017-11-05T11:25:06.364Z,10.70
2017-11-05T11:27:34.782Z,10.50
2017-11-05T11:30:02.494Z,10.50
2017-11-05T11:32:30.211Z,10.50
2017-11-05T11:34:57.835Z,10.70
2017-11-05T11:37:26.215Z,10.90
2017-11-05T11:39:54.592Z,10.70
2017-11-05T11:42:22.965Z,10.70
2017-11-05T11:44:51.340Z,10.70
2017-11-05T11:47:19.723Z,10.80
2017-11-05T11:49:47.353Z,10.70
2017-11-05T11:52:17.744Z,10.60
2017-11-05T11:54:45.386Z,10.80
2017-11-05T11:57:13.870Z,10.80
2017-11-05T11:59:41.672Z,10.80
2017-11-05T12:02:10.085Z,10.80
2017-11-05T12:04:37.844Z,10.80
2017-11-05T12:07:05.476Z,10.90
2017-11-05T12:09:33.104Z,10.90
2017-11-05T12:12:00.688Z,10.90
2017-11-05T12:14:28.305Z,10.90
2017-11-05T12:16:56.809Z,11.00
2017-11-05T12:19:24.459Z,11.00
2017-11-05T12:21:52.081Z,10.80
2017-11-05T12:24:19.715Z,10.70
2017-11-05T12:26:47.414Z,10.70
2017-11-05T12:29:15.043Z,10.90
2017-11-05T12:31:42.639Z,10.90
2017-11-05T12:34:10.390Z,11.00
2017-11-05T12:36:38.039Z,11.00
2017-11-05T12:39:05.655Z,11.00
2017-11-05T12:41:33.291Z,11.00
2017-11-05T12:44:03.475Z,11.10
2017-11-05T12:46:31.135Z,11.10
2017-11-05T12:48:59.216Z,11.10
2017-11-05T12:51:26.844Z,11.10
2017-11-05T12:53:54.442Z,11.20
2017-11-05T12:56:22.099Z,11.30
2017-11-05T12:58:49.783Z,11.40
2017-11-05T13:01:18.181Z,11.20
2017-11-05T13:03:45.807Z,11.20
2017-11-05T13:06:13.478Z,11.20
2017-11-05T13:08:41.090Z,11.50
2017-11-05T13:11:08.688Z,11.60
2017-11-05T13:13:36.316Z,11.50
2017-11-05T13:16:03.994Z,11.60
2017-11-05T13:18:31.595Z,11.40
2017-11-05T13:20:59.963Z,11.20
2017-11-05T13:23:27.587Z,11.20
2017-11-05T13:25:55.175Z,11.30
2017-11-05T13:28:22.821Z,11.40
2017-11-05T13:30:50.430Z,11.60
2017-11-05T13:33:18.118Z,11.60
2017-11-05T13:35:45.805Z,11.80
2017-11-05T13:38:13.412Z,11.90
2017-11-05T13:40:41.786Z,11.90
2017-11-05T13:43:10.258Z,11.80
2017-11-05T13:45:38.695Z,11.60
2017-11-05T13:48:06.311Z,11.60
2017-11-05T13:50:33.971Z,11.60
2017-11-05T13:53:01.560Z,11.70
2017-11-05T13:55:29.185Z,11.70
2017-11-05T13:57:56.812Z,11.70
2017-11-05T14:00:25.107Z,11.70
2017-11-05T14:02:53.224Z,11.70
2017-11-05T14:05:24.250Z,11.60
2017-11-05T14:07:51.854Z,11.60
2017-11-05T14:10:19.459Z,11.60
2017-11-05T14:12:47.079Z,11.60
2017-11-05T14:15:14.665Z,11.60
2017-11-05T14:17:42.277Z,11.60
2017-11-05T14:20:09.873Z,11.60
2017-11-05T14:22:37.518Z,11.50
2017-11-05T14:25:06.046Z,11.50
2017-11-05T14:27:33.893Z,11.60
2017-11-05T14:30:01.810Z,11.70
2017-11-05T14:32:30.668Z,11.60
2017-11-05T14:34:58.311Z,11.60
2017-11-05T14:37:25.975Z,11.60
2017-11-05T14:39:53.552Z,11.60
2017-11-05T14:42:21.190Z,11.60
2017-11-05T14:44:48.896Z,11.60
2017-11-05T14:47:16.595Z,11.60
2017-11-05T14:49:45.130Z,11.50
2017-11-05T14:52:12.790Z,11.50
2017-11-05T14:54:40.422Z,11.40
2017-11-05T14:57:08.058Z,11.50
2017-11-05T14:59:35.680Z,11.40
2017-11-05T15:02:04.100Z,11.40
2017-11-05T15:04:32.497Z,11.40
2017-11-05T15:07:00.085Z,11.40
2017-11-05T15:09:27.799Z,11.20
2017-11-05T15:11:55.410Z,11.00
2017-11-05T15:14:23.028Z,10.80
2017-11-05T15:16:51.476Z,10.40
2017-11-05T15:19:19.192Z,10.40
2017-11-05T15:21:47.332Z,10.30
2017-11-05T15:24:14.950Z,10.30
2017-11-05T15:26:42.605Z,10.20
2017-11-05T15:29:10.232Z,10.30
2017-11-05T15:31:40.253Z,10.20
2017-11-05T15:34:08.792Z,10.10
2017-11-05T15:36:36.448Z,10.10
2017-11-05T15:39:04.183Z,10.20
2017-11-05T15:41:31.806Z,10.20
2017-11-05T15:43:59.519Z,10.10
2017-11-05T15:46:27.154Z,10.10
2017-11-05T15:48:54.794Z,10.20
2017-11-05T15:51:23.276Z,10.20
2017-11-05T15:53:51.037Z,10.10
2017-11-05T15:56:18.661Z,10.20
2017-11-05T15:58:46.297Z,10.20
2017-11-05T16:01:14.450Z,10.20
2017-11-05T16:03:42.095Z,10.20
2017-11-05T16:06:09.707Z,10.20
2017-11-05T16:08:37.370Z,10.20
2017-11-05T16:11:04.971Z,10.20
2017-11-05T16:13:32.662Z,10.30
2017-11-05T16:16:01.997Z,10.30
2017-11-05T16:18:29.631Z,10.30
2017-11-05T16:20:57.281Z,10.30
2017-11-05T16:23:25.766Z,10.10
2017-11-05T16:25:54.129Z,10.00
2017-11-05T16:28:21.791Z,10.00
2017-11-05T16:30:49.443Z,9.90
2017-11-05T16:33:17.098Z,9.90
2017-11-05T16:35:44.690Z,9.80
2017-11-05T16:38:13.047Z,9.50
2017-11-05T16:40:40.677Z,9.50
2017-11-05T16:43:08.287Z,9.40
2017-11-05T16:45:35.930Z,9.40
2017-11-05T16:48:03.519Z,9.40
2017-11-05T16:50:31.165Z,9.30
2017-11-05T16:52:59.316Z,9.30
2017-11-05T16:55:26.985Z,9.10
2017-11-05T16:57:54.593Z,9.00
2017-11-05T17:00:22.263Z,8.90
2017-11-05T17:02:49.937Z,8.80
2017-11-05T17:05:17.559Z,8.70
2017-11-05T17:07:45.247Z,8.60
2017-11-05T17:10:13.669Z,8.50
2017-11-05T17:12:41.327Z,8.40
2017-11-05T17:15:08.950Z,8.40
2017-11-05T17:17:37.727Z,8.40
2017-11-05T17:20:05.369Z,8.30
2017-11-05T17:22:33.115Z,8.20
2017-11-05T17:25:00.769Z,8.20
2017-11-05T17:27:28.400Z,8.20
2017-11-05T17:29:56.199Z,8.10
2017-11-05T17:32:23.862Z,8.20
2017-11-05T17:34:51.499Z,8.10
2017-11-05T17:37:19.112Z,8.10
2017-11-05T17:39:46.842Z,8.20
2017-11-05T17:42:14.537Z,8.20
2017-11-05T17:44:42.258Z,8.20
2017-11-05T17:47:09.900Z,8.20
2017-11-05T17:49:37.555Z,8.20
2017-11-05T17:52:05.764Z,8.20
2017-11-05T17:54:33.454Z,8.20
2017-11-05T17:57:01.855Z,8.20
2017-11-05T17:59:29.471Z,8.20
2017-11-05T18:01:57.087Z,8.10
2017-11-05T18:04:24.757Z,8.10
2017-11-05T18:06:53.338Z,8.00
2017-11-05T18:09:21.733Z,7.90
2017-11-05T18:11:49.462Z,7.90
2017-11-05T18:14:17.307Z,7.70
2017-11-05T18:16:45.675Z,7.80
2017-11-05T18:19:13.601Z,7.70
2017-11-05T18:21:42.023Z,7.60
2017-11-05T18:24:10.377Z,7.50
2017-11-05T18:26:38.060Z,7.40
2017-11-05T18:29:05.733Z,7.40
2017-11-05T18:31:34.385Z,7.30
2017-11-05T18:34:02.004Z,7.20
2017-11-05T18:36:29.671Z,7.20
2017-11-05T18:38:57.268Z,7.10
2017-11-05T18:41:25.757Z,7.10
2017-11-05T18:43:53.360Z,7.10
2017-11-05T18:46:21.798Z,7.10
2017-11-05T18:48:53.059Z,7.10
2017-11-05T18:51:20.654Z,7.10
2017-11-05T18:53:48.243Z,7.10
2017-11-05T18:56:16.827Z,7.10
2017-11-05T18:58:45.561Z,7.10
2017-11-05T19:01:13.953Z,7.10
2017-11-05T19:03:42.328Z,7.10
2017-11-05T19:06:11.666Z,7.10
2017-11-05T19:08:39.273Z,7.10
2017-11-05T19:11:07.619Z,7.00
2017-11-05T19:13:35.263Z,7.00
2017-11-05T19:16:02.881Z,7.00
2017-11-05T19:18:31.238Z,6.90
2017-11-05T19:21:00.425Z,6.80
2017-11-05T19:23:28.044Z,6.80
2017-11-05T19:25:55.609Z,6.80
2017-11-05T19:28:23.257Z,6.80
2017-11-05T19:30:51.615Z,6.80
2017-11-05T19:33:19.956Z,6.80
2017-11-05T19:35:47.545Z,6.70
2017-11-05T19:38:15.163Z,6.70
2017-11-05T19:40:42.770Z,6.70
2017-11-05T19:43:11.175Z,6.60
2017-11-05T19:45:38.837Z,6.60
2017-11-05T19:48:06.451Z,6.60
2017-11-05T19:50:34.136Z,6.50
2017-11-05T19:53:01.729Z,6.50
2017-11-05T19:55:29.596Z,6.40
2017-11-05T19:57:57.179Z,6.40
2017-11-05T20:00:24.891Z,6.40
2017-11-05T20:02:53.380Z,6.30
2017-11-05T20:05:21.819Z,6.20
2017-11-05T20:07:49.403Z,6.30
2017-11-05T20:10:17.031Z,6.20
2017-11-05T20:12:44.592Z,6.10
2017-11-05T20:15:12.965Z,6.10
2017-11-05T20:17:41.356Z,6.10
2017-11-05T20:20:08.932Z,6.10
2017-11-05T20:22:36.562Z,6.10
2017-11-05T20:25:04.497Z,6.10
2017-11-05T20:27:32.097Z,6.10
2017-11-05T20:30:00.434Z,6.20
2017-11-05T20:32:28.025Z,6.20
2017-11-05T20:34:56.385Z,6.10
2017-11-05T20:37:24.028Z,6.10
2017-11-05T20:39:51.629Z,6.10
2017-11-05T20:42:19.981Z,6.10
2017-11-05T20:44:47.558Z,6.00
2017-11-05T20:47:15.162Z,6.00
2017-11-05T20:49:42.756Z,6.00
2017-11-05T20:52:10.426Z,6.10
2017-11-05T20:54:38.017Z,6.10
2017-11-05T20:57:05.624Z,6.10
2017-11-05T20:59:33.996Z,6.10
2017-11-05T21:02:01.592Z,6.10
2017-11-05T21:04:29.973Z,6.10
2017-11-05T21:07:00.578Z,6.10
2017-11-05T21:09:28.143Z,6.00
2017-11-05T21:11:55.811Z,6.00
2017-11-05T21:14:23.389Z,6.10
2017-11-05T21:16:51.009Z,6.10
2017-11-05T21:19:18.570Z,6.00
2017-11-05T21:21:46.188Z,6.00
2017-11-05T21:24:14.541Z,5.90
2017-11-05T21:26:42.147Z,5.80
2017-11-05T21:29:09.729Z,5.90
2017-11-05T21:31:37.323Z,5.90
2017-11-05T21:34:04.904Z,5.80
2017-11-05T21:36:33.548Z,5.80
2017-11-05T21:39:02.377Z,5.90
2017-11-05T21:41:31.022Z,5.90
2017-11-05T21:43:58.727Z,5.70
2017-11-05T21:46:27.461Z,5.70
2017-11-05T21:48:55.122Z,5.70
2017-11-05T21:51:22.720Z,5.60
2017-11-05T21:53:51.198Z,5.50
2017-11-05T21:56:18.825Z,5.40
2017-11-05T21:58:46.404Z,5.50
2017-11-05T22:01:13.959Z,5.40
2017-11-05T22:03:41.592Z,5.40
2017-11-05T22:08:43.111Z,5.50
2017-11-05T22:11:10.711Z,5.50
2017-11-05T22:13:38.293Z,5.60
2017-11-05T22:16:05.914Z,5.70
2017-11-05T22:18:33.501Z,5.70
2017-11-05T22:21:01.117Z,5.70
2017-11-05T22:23:28.726Z,5.60
2017-11-05T22:25:56.368Z,5.60
2017-11-05T22:28:23.973Z,5.60
2017-11-05T22:30:51.552Z,5.60
2017-11-05T22:33:19.174Z,5.60
2017-11-05T22:35:46.743Z,5.60
2017-11-05T22:38:14.375Z,5.60
2017-11-05T22:40:42.028Z,5.60
2017-11-05T22:43:09.587Z,5.50
2017-11-05T22:45:37.224Z,5.40
2017-11-05T22:48:04.830Z,5.40
2017-11-05T22:50:32.443Z,5.40
2017-11-05T22:53:00.009Z,5.40
2017-11-05T22:55:28.374Z,5.40
2017-11-05T22:57:55.957Z,5.40
2017-11-05T23:00:23.615Z,5.30
2017-11-05T23:02:51.239Z,5.30
2017-11-05T23:05:19.556Z,5.30
2017-11-05T23:07:47.239Z,5.20
2017-11-05T23:10:15.122Z,5.30
2017-11-05T23:12:42.736Z,5.30
2017-11-05T23:15:10.346Z,5.30
2017-11-05T23:17:37.944Z,5.30
2017-11-05T23:20:05.537Z,5.30
2017-11-05T23:22:33.162Z,5.30
2017-11-05T23:25:00.809Z,5.30
2017-11-05T23:27:28.392Z,5.10
2017-11-05T23:29:55.968Z,5.10
2017-11-05T23:32:23.533Z,5.00
2017-11-05T23:34:51.124Z,5.00
2017-11-05T23:37:18.710Z,5.00
2017-11-05T23:39:46.284Z,4.90
2017-11-05T23:42:13.889Z,4.90
2017-11-05T23:44:41.477Z,4.90
2017-11-05T23:47:09.077Z,4.90
2017-11-05T23:49:36.684Z,4.90
2017-11-05T23:52:04.289Z,4.90
2017-11-05T23:54:31.908Z,4.90
2017-11-05T23:56:59.469Z,4.80
2017-11-05T23:59:28.809Z,4.80
